createdAt,value
2018-11-03T00:00:04.936Z,1028.02
2018-11-03T00:01:05.759Z,1028.08
2018-11-03T00:02:04.864Z,1028.04
2018-11-03T00:03:05.190Z,1028.02
2018-11-03T00:04:04.846Z,1028.03
2018-11-03T00:05:04.791Z,1028.02
2018-11-03T00:06:05.079Z,1028.05
2018-11-03T00:07:04.915Z,1028.06
2018-11-03T00:08:05.172Z,1028.11
2018-11-03T00:09:04.886Z,1028.11
2018-11-03T00:10:05.146Z,1028.14
2018-11-03T00:11:04.826Z,1028.12
2018-11-03T00:12:04.982Z,1028.12
2018-11-03T00:13:04.828Z,1028.15
2018-11-03T00:14:05.100Z,1028.15
2018-11-03T00:15:05.236Z,1028.14
2018-11-03T00:16:05.663Z,1028.16
2018-11-03T00:17:05.207Z,1028.12
2018-11-03T00:18:05.002Z,1028.1
2018-11-03T00:19:04.887Z,1028.15
2018-11-03T00:20:05.261Z,1028.15
2018-11-03T00:21:04.920Z,1028.14
2018-11-03T00:22:05.284Z,1028.18
2018-11-03T00:23:04.731Z,1028.16
2018-11-03T00:24:05.190Z,1028.18
2018-11-03T00:25:05.103Z,1028.17
2018-11-03T00:26:05.836Z,1028.19
2018-11-03T00:27:05.472Z,1028.2
2018-11-03T00:28:04.791Z,1028.17
2018-11-03T00:29:04.937Z,1028.11
2018-11-03T00:30:05.293Z,1028.13
2018-11-03T00:31:05.022Z,1028.13
2018-11-03T00:32:05.248Z,1028.13
2018-11-03T00:33:04.768Z,1028.11
2018-11-03T00:34:05.105Z,1028.07
2018-11-03T00:35:04.906Z,1028.07
2018-11-03T00:36:04.947Z,1028.08
2018-11-03T00:37:05.187Z,1028.01
2018-11-03T00:38:04.827Z,1028.08
2018-11-03T00:39:04.900Z,1028.1
2018-11-03T00:40:05.329Z,1028.04
2018-11-03T00:41:05.125Z,1028.1
2018-11-03T00:42:04.916Z,1028.1
2018-11-03T00:43:05.084Z,1028.12
2018-11-03T00:44:04.744Z,1028.12
2018-11-03T00:45:05.040Z,1028.11
2018-11-03T00:46:04.986Z,1028.12
2018-11-03T00:47:04.836Z,1028.13
2018-11-03T00:48:05.850Z,1028.15
2018-11-03T00:49:05.058Z,1028.19
2018-11-03T00:50:05.629Z,1028.19
2018-11-03T00:51:04.740Z,1028.22
2018-11-03T00:52:05.227Z,1028.2
2018-11-03T00:53:05.043Z,1028.16
2018-11-03T00:54:05.383Z,1028.14
2018-11-03T00:55:04.976Z,1028.15
2018-11-03T00:56:05.436Z,1028.12
2018-11-03T00:57:04.890Z,1028.12
2018-11-03T00:58:05.147Z,1028.14
2018-11-03T00:59:04.829Z,1028.11
2018-11-03T01:00:04.888Z,1028.09
2018-11-03T01:01:05.000Z,1028.09
2018-11-03T01:02:05.222Z,1028.11
2018-11-03T01:03:05.052Z,1028.08
2018-11-03T01:04:05.130Z,1028.11
2018-11-03T01:05:04.941Z,1028.07
2018-11-03T01:06:05.508Z,1028.05
2018-11-03T01:07:05.083Z,1028.04
2018-11-03T01:08:05.090Z,1027.99
2018-11-03T01:09:05.324Z,1028.01
2018-11-03T01:10:05.068Z,1027.97
2018-11-03T01:11:05.005Z,1027.97
2018-11-03T01:12:05.148Z,1027.97
2018-11-03T01:13:05.173Z,1027.96
2018-11-03T01:14:04.962Z,1027.96
2018-11-03T01:15:04.877Z,1027.94
2018-11-03T01:16:04.963Z,1027.94
2018-11-03T01:17:04.936Z,1027.93
2018-11-03T01:18:05.312Z,1027.93
2018-11-03T01:19:05.292Z,1027.92
2018-11-03T01:20:05.371Z,1027.96
2018-11-03T01:21:04.922Z,1027.92
2018-11-03T01:22:04.883Z,1027.94
2018-11-03T01:23:04.984Z,1027.95
2018-11-03T01:24:05.270Z,1027.97
2018-11-03T01:25:05.041Z,1028.01
2018-11-03T01:26:04.737Z,1027.98
2018-11-03T01:27:05.082Z,1027.99
2018-11-03T01:28:04.932Z,1028.03
2018-11-03T01:29:04.797Z,1028.04
2018-11-03T01:30:04.881Z,1028.05
2018-11-03T01:31:04.687Z,1028.03
2018-11-03T01:32:04.966Z,1028.05
2018-11-03T01:33:04.764Z,1028.03
2018-11-03T01:34:05.321Z,1027.98
2018-11-03T01:35:04.888Z,1028.04
2018-11-03T01:36:04.875Z,1027.91
2018-11-03T01:37:05.026Z,1027.94
2018-11-03T01:38:04.749Z,1027.93
2018-11-03T01:39:04.876Z,1027.84
2018-11-03T01:40:04.691Z,1027.79
2018-11-03T01:41:04.964Z,1027.78
2018-11-03T01:42:04.894Z,1027.78
2018-11-03T01:43:04.774Z,1027.69
2018-11-03T01:44:04.906Z,1027.78
2018-11-03T01:45:05.099Z,1027.74
2018-11-03T01:46:05.591Z,1027.75
2018-11-03T01:47:05.215Z,1027.8
2018-11-03T01:48:05.167Z,1027.77
2018-11-03T01:49:04.894Z,1027.81
2018-11-03T01:50:05.134Z,1027.78
2018-11-03T01:51:04.898Z,1027.78
2018-11-03T01:52:04.965Z,1027.81
2018-11-03T01:53:05.301Z,1027.78
2018-11-03T01:54:04.660Z,1027.82
2018-11-03T01:55:04.859Z,1027.79
2018-11-03T01:56:06.276Z,1027.79
2018-11-03T01:57:04.937Z,1027.81
2018-11-03T01:58:05.151Z,1027.83
2018-11-03T01:59:04.878Z,1027.81
2018-11-03T02:00:04.780Z,1027.86
2018-11-03T02:01:04.731Z,1027.84
2018-11-03T02:02:04.889Z,1027.87
2018-11-03T02:03:04.946Z,1027.9
2018-11-03T02:04:05.240Z,1027.9
2018-11-03T02:05:05.086Z,1027.88
2018-11-03T02:06:05.836Z,1027.94
2018-11-03T02:07:04.915Z,1027.93
2018-11-03T02:08:05.255Z,1027.89
2018-11-03T02:09:05.063Z,1027.94
2018-11-03T02:10:05.317Z,1027.92
2018-11-03T02:11:04.846Z,1027.96
2018-11-03T02:12:05.699Z,1027.91
2018-11-03T02:13:04.759Z,1027.9
2018-11-03T02:14:04.755Z,1027.93
2018-11-03T02:15:05.141Z,1027.94
2018-11-03T02:16:05.416Z,1027.96
2018-11-03T02:17:04.846Z,1027.89
2018-11-03T02:18:04.831Z,1027.87
2018-11-03T02:19:05.136Z,1027.9
2018-11-03T02:20:05.077Z,1027.85
2018-11-03T02:21:05.297Z,1027.82
2018-11-03T02:22:05.181Z,1027.83
2018-11-03T02:23:04.966Z,1027.82
2018-11-03T02:24:04.928Z,1027.81
2018-11-03T02:25:05.925Z,1027.79
2018-11-03T02:26:05.201Z,1027.77
2018-11-03T02:27:05.577Z,1027.79
2018-11-03T02:28:04.741Z,1027.8
2018-11-03T02:29:05.131Z,1027.82
2018-11-03T02:30:05.696Z,1027.83
2018-11-03T02:31:04.906Z,1027.88
2018-11-03T02:32:05.565Z,1027.89
2018-11-03T02:33:04.834Z,1027.85
2018-11-03T02:34:05.333Z,1027.87
2018-11-03T02:35:04.916Z,1027.89
2018-11-03T02:36:05.042Z,1027.9
2018-11-03T02:37:05.649Z,1027.91
2018-11-03T02:38:05.357Z,1027.92
2018-11-03T02:39:05.173Z,1027.92
2018-11-03T02:40:05.235Z,1027.96
2018-11-03T02:41:04.958Z,1027.97
2018-11-03T02:42:05.029Z,1027.97
2018-11-03T02:43:05.225Z,1027.98
2018-11-03T02:44:04.755Z,1028
2018-11-03T02:45:05.139Z,1028.1
2018-11-03T02:46:05.046Z,1028.04
2018-11-03T02:47:05.623Z,1028.06
2018-11-03T02:48:05.046Z,1028.04
2018-11-03T02:49:04.858Z,1028.05
2018-11-03T02:50:05.391Z,1028.07
2018-11-03T02:51:05.203Z,1028.13
2018-11-03T02:52:04.895Z,1028.06
2018-11-03T02:53:04.869Z,1028.11
2018-11-03T02:54:04.901Z,1028.07
2018-11-03T02:55:04.915Z,1028.08
2018-11-03T02:56:05.044Z,1028.05
2018-11-03T02:57:05.895Z,1028
2018-11-03T02:58:05.093Z,1028.04
2018-11-03T02:59:04.899Z,1027.95
2018-11-03T03:00:04.882Z,1028.06
2018-11-03T03:01:04.998Z,1028.02
2018-11-03T03:02:04.997Z,1028.01
2018-11-03T03:03:04.953Z,1027.99
2018-11-03T03:04:05.058Z,1027.98
2018-11-03T03:05:05.269Z,1027.99
2018-11-03T03:06:04.854Z,1027.9
2018-11-03T03:07:05.657Z,1027.94
2018-11-03T03:08:04.720Z,1027.91
2018-11-03T03:09:04.916Z,1027.92
2018-11-03T03:10:04.992Z,1027.92
2018-11-03T03:11:04.921Z,1027.91
2018-11-03T03:12:05.079Z,1027.99
2018-11-03T03:13:04.864Z,1027.88
2018-11-03T03:14:05.112Z,1027.91
2018-11-03T03:15:04.691Z,1027.99
2018-11-03T03:16:04.902Z,1027.92
2018-11-03T03:17:05.525Z,1027.93
2018-11-03T03:18:04.934Z,1027.93
2018-11-03T03:19:04.799Z,1027.94
2018-11-03T03:20:04.990Z,1027.95
2018-11-03T03:21:05.021Z,1027.97
2018-11-03T03:22:04.673Z,1027.94
2018-11-03T03:23:04.856Z,1027.93
2018-11-03T03:24:04.792Z,1027.97
2018-11-03T03:25:04.802Z,1027.92
2018-11-03T03:26:05.379Z,1027.94
2018-11-03T03:27:05.496Z,1027.96
2018-11-03T03:28:04.822Z,1027.92
2018-11-03T03:29:05.536Z,1027.95
2018-11-03T03:30:04.969Z,1027.93
2018-11-03T03:31:04.889Z,1027.91
2018-11-03T03:32:04.974Z,1027.87
2018-11-03T03:33:05.085Z,1027.87
2018-11-03T03:34:04.925Z,1027.94
2018-11-03T03:35:04.957Z,1027.94
2018-11-03T03:36:05.026Z,1027.98
2018-11-03T03:37:04.778Z,1027.94
2018-11-03T03:38:05.230Z,1027.96
2018-11-03T03:39:04.765Z,1028
2018-11-03T03:40:05.124Z,1027.93
2018-11-03T03:41:05.001Z,1027.96
2018-11-03T03:42:04.794Z,1027.96
2018-11-03T03:43:04.863Z,1027.97
2018-11-03T03:44:05.299Z,1028
2018-11-03T03:45:05.246Z,1028.02
2018-11-03T03:46:05.670Z,1028.05
2018-11-03T03:47:06.049Z,1028.02
2018-11-03T03:48:05.226Z,1028.04
2018-11-03T03:49:04.990Z,1028.09
2018-11-03T03:50:04.907Z,1028.11
2018-11-03T03:51:04.772Z,1028.06
2018-11-03T03:52:05.296Z,1028.09
2018-11-03T03:53:04.775Z,1028.12
2018-11-03T03:54:04.761Z,1028.1
2018-11-03T03:55:05.164Z,1028.14
2018-11-03T03:56:04.910Z,1028.12
2018-11-03T03:57:04.844Z,1028.1
2018-11-03T03:58:04.886Z,1028.16
2018-11-03T03:59:04.881Z,1028.11
2018-11-03T04:00:05.222Z,1028.16
2018-11-03T04:01:05.280Z,1028.18
2018-11-03T04:02:04.808Z,1028.24
2018-11-03T04:03:05.189Z,1028.26
2018-11-03T04:04:04.964Z,1028.25
2018-11-03T04:05:04.947Z,1028.26
2018-11-03T04:06:05.260Z,1028.28
2018-11-03T04:07:05.051Z,1028.32
2018-11-03T04:08:04.867Z,1028.34
2018-11-03T04:09:04.874Z,1028.29
2018-11-03T04:10:05.301Z,1028.33
2018-11-03T04:11:04.963Z,1028.29
2018-11-03T04:12:04.791Z,1028.28
2018-11-03T04:13:04.825Z,1028.29
2018-11-03T04:14:04.601Z,1028.24
2018-11-03T04:15:04.757Z,1028.27
2018-11-03T04:16:05.540Z,1028.23
2018-11-03T04:17:04.847Z,1028.27
2018-11-03T04:18:04.870Z,1028.19
2018-11-03T04:19:04.981Z,1028.21
2018-11-03T04:20:04.935Z,1028.2
2018-11-03T04:21:04.805Z,1028.23
2018-11-03T04:22:04.737Z,1028.24
2018-11-03T04:23:05.134Z,1028.23
2018-11-03T04:24:04.929Z,1028.3
2018-11-03T04:25:04.888Z,1028.32
2018-11-03T04:26:05.918Z,1028.27
2018-11-03T04:27:04.661Z,1028.24
2018-11-03T04:28:05.316Z,1028.26
2018-11-03T04:29:04.839Z,1028.25
2018-11-03T04:30:05.058Z,1028.23
2018-11-03T04:31:04.827Z,1028.22
2018-11-03T04:32:04.871Z,1028.19
2018-11-03T04:33:04.829Z,1028.19
2018-11-03T04:34:04.798Z,1028.19
2018-11-03T04:35:04.953Z,1028.22
2018-11-03T04:36:04.688Z,1028.2
2018-11-03T04:37:04.743Z,1028.2
2018-11-03T04:38:04.979Z,1028.19
2018-11-03T04:39:04.635Z,1028.13
2018-11-03T04:40:04.731Z,1028.12
2018-11-03T04:41:04.747Z,1028.07
2018-11-03T04:42:04.736Z,1028.09
2018-11-03T04:43:05.101Z,1028.09
2018-11-03T04:44:04.891Z,1028.09
2018-11-03T04:45:04.866Z,1028.04
2018-11-03T04:46:04.639Z,1028.04
2018-11-03T04:47:04.818Z,1028.03
2018-11-03T04:48:04.680Z,1028.02
2018-11-03T04:49:04.988Z,1028.05
2018-11-03T04:50:04.700Z,1028.05
2018-11-03T04:51:04.662Z,1028.04
2018-11-03T04:52:04.876Z,1028.05
2018-11-03T04:53:05.234Z,1028.01
2018-11-03T04:54:04.977Z,1027.96
2018-11-03T04:55:05.347Z,1027.92
2018-11-03T04:56:05.070Z,1027.96
2018-11-03T04:57:05.059Z,1028
2018-11-03T04:58:04.792Z,1027.96
2018-11-03T04:59:05.080Z,1027.99
2018-11-03T05:00:04.960Z,1027.9
2018-11-03T05:01:05.003Z,1027.96
2018-11-03T05:02:04.697Z,1027.93
2018-11-03T05:03:04.944Z,1027.94
2018-11-03T05:04:05.134Z,1027.99
2018-11-03T05:05:04.751Z,1028.01
2018-11-03T05:06:05.269Z,1028.04
2018-11-03T05:07:04.665Z,1028.03
2018-11-03T05:08:04.973Z,1028.07
2018-11-03T05:09:05.006Z,1028.08
2018-11-03T05:10:05.351Z,1028.05
2018-11-03T05:11:05.141Z,1028.07
2018-11-03T05:12:04.696Z,1028.02
2018-11-03T05:13:05.002Z,1028.04
2018-11-03T05:14:04.693Z,1027.97
2018-11-03T05:15:04.846Z,1027.97
2018-11-03T05:16:04.819Z,1027.99
2018-11-03T05:17:05.393Z,1028.05
2018-11-03T05:18:04.477Z,1028
2018-11-03T05:19:04.707Z,1028.08
2018-11-03T05:20:04.882Z,1028.07
2018-11-03T05:21:04.913Z,1028.09
2018-11-03T05:22:04.888Z,1028.1
2018-11-03T05:23:05.016Z,1028.07
2018-11-03T05:24:04.679Z,1028.03
2018-11-03T05:25:04.858Z,1028.03
2018-11-03T05:26:04.885Z,1028.02
2018-11-03T05:27:04.816Z,1028
2018-11-03T05:28:04.768Z,1028.05
2018-11-03T05:29:04.866Z,1028.06
2018-11-03T05:30:04.717Z,1028.04
2018-11-03T05:31:05.288Z,1028.07
2018-11-03T05:32:04.882Z,1028.06
2018-11-03T05:33:04.690Z,1028.12
2018-11-03T05:34:04.838Z,1028.06
2018-11-03T05:35:04.927Z,1028.03
2018-11-03T05:36:05.197Z,1028.04
2018-11-03T05:37:04.728Z,1028.01
2018-11-03T05:38:04.768Z,1028.02
2018-11-03T05:39:05.462Z,1028.07
2018-11-03T05:40:04.965Z,1028.08
2018-11-03T05:41:04.850Z,1028.08
2018-11-03T05:42:05.110Z,1028.08
2018-11-03T05:43:05.716Z,1028.09
2018-11-03T05:44:04.908Z,1028.07
2018-11-03T05:45:04.837Z,1028.05
2018-11-03T05:46:05.879Z,1028.03
2018-11-03T05:47:05.009Z,1028.06
2018-11-03T05:48:05.053Z,1028.03
2018-11-03T05:49:05.070Z,1028.07
2018-11-03T05:50:04.720Z,1028.15
2018-11-03T05:51:05.475Z,1028.08
2018-11-03T05:52:04.696Z,1028.14
2018-11-03T05:53:04.889Z,1028.14
2018-11-03T05:54:05.295Z,1028.14
2018-11-03T05:55:05.394Z,1028.14
2018-11-03T05:56:05.850Z,1028.14
2018-11-03T05:57:04.792Z,1028.17
2018-11-03T05:58:05.740Z,1028.13
2018-11-03T05:59:04.964Z,1028.12
2018-11-03T06:00:04.830Z,1028.15
2018-11-03T06:01:04.703Z,1028.15
2018-11-03T06:02:04.769Z,1028.13
2018-11-03T06:03:05.047Z,1028.13
2018-11-03T06:04:04.813Z,1028.13
2018-11-03T06:05:04.924Z,1028.13
2018-11-03T06:06:05.317Z,1028.16
2018-11-03T06:07:04.897Z,1028.13
2018-11-03T06:08:04.758Z,1028.14
2018-11-03T06:09:04.914Z,1028.11
2018-11-03T06:10:04.826Z,1028.13
2018-11-03T06:11:04.847Z,1028.11
2018-11-03T06:12:04.714Z,1028.07
2018-11-03T06:13:05.001Z,1028.06
2018-11-03T06:14:04.999Z,1028.07
2018-11-03T06:15:04.949Z,1028.07
2018-11-03T06:16:05.381Z,1028.07
2018-11-03T06:17:04.718Z,1028.07
2018-11-03T06:18:04.944Z,1028.14
2018-11-03T06:19:04.684Z,1028.15
2018-11-03T06:20:04.762Z,1028.09
2018-11-03T06:21:04.886Z,1028.13
2018-11-03T06:22:04.730Z,1028.11
2018-11-03T06:23:05.292Z,1028.09
2018-11-03T06:24:04.595Z,1028.09
2018-11-03T06:25:04.903Z,1028.12
2018-11-03T06:26:05.349Z,1028.12
2018-11-03T06:27:04.761Z,1028.14
2018-11-03T06:28:05.625Z,1028.18
2018-11-03T06:29:05.005Z,1028.16
2018-11-03T06:30:05.285Z,1028.16
2018-11-03T06:31:04.732Z,1028.19
2018-11-03T06:32:04.787Z,1028.21
2018-11-03T06:33:05.134Z,1028.2
2018-11-03T06:34:04.939Z,1028.18
2018-11-03T06:35:05.751Z,1028.21
2018-11-03T06:36:04.649Z,1028.17
2018-11-03T06:37:05.206Z,1028.16
2018-11-03T06:38:04.741Z,1028.21
2018-11-03T06:39:05.284Z,1028.25
2018-11-03T06:40:05.512Z,1028.2
2018-11-03T06:41:04.768Z,1028.22
2018-11-03T06:42:04.745Z,1028.26
2018-11-03T06:43:04.813Z,1028.22
2018-11-03T06:44:04.674Z,1028.26
2018-11-03T06:45:04.975Z,1028.19
2018-11-03T06:46:04.762Z,1028.16
2018-11-03T06:47:04.911Z,1028.18
2018-11-03T06:48:04.763Z,1028.16
2018-11-03T06:49:04.757Z,1028.19
2018-11-03T06:50:04.951Z,1028.22
2018-11-03T06:51:05.068Z,1028.3
2018-11-03T06:52:05.477Z,1028.25
2018-11-03T06:53:05.179Z,1028.26
2018-11-03T06:54:04.856Z,1028.31
2018-11-03T06:55:04.973Z,1028.25
2018-11-03T06:56:04.683Z,1028.28
2018-11-03T06:57:05.087Z,1028.3
2018-11-03T06:58:04.665Z,1028.27
2018-11-03T06:59:05.042Z,1028.25
2018-11-03T07:00:04.990Z,1028.26
2018-11-03T07:01:05.013Z,1028.29
2018-11-03T07:02:04.962Z,1028.27
2018-11-03T07:03:04.705Z,1028.29
2018-11-03T07:04:04.945Z,1028.26
2018-11-03T07:05:05.165Z,1028.26
2018-11-03T07:06:05.051Z,1028.21
2018-11-03T07:07:05.337Z,1028.2
2018-11-03T07:08:05.121Z,1028.21
2018-11-03T07:09:04.853Z,1028.24
2018-11-03T07:10:04.920Z,1028.22
2018-11-03T07:11:04.717Z,1028.24
2018-11-03T07:12:05.215Z,1028.23
2018-11-03T07:13:05.536Z,1028.22
2018-11-03T07:14:04.787Z,1028.25
2018-11-03T07:15:05.186Z,1028.32
2018-11-03T07:16:04.603Z,1028.33
2018-11-03T07:17:06.227Z,1028.32
2018-11-03T07:18:04.710Z,1028.35
2018-11-03T07:19:04.602Z,1028.36
2018-11-03T07:20:05.040Z,1028.38
2018-11-03T07:21:04.649Z,1028.38
2018-11-03T07:22:05.090Z,1028.4
2018-11-03T07:23:04.994Z,1028.39
2018-11-03T07:24:04.969Z,1028.39
2018-11-03T07:25:05.211Z,1028.42
2018-11-03T07:26:05.776Z,1028.44
2018-11-03T07:27:04.654Z,1028.46
2018-11-03T07:28:04.937Z,1028.43
2018-11-03T07:29:04.585Z,1028.47
2018-11-03T07:30:04.758Z,1028.43
2018-11-03T07:31:04.923Z,1028.39
2018-11-03T07:32:04.785Z,1028.43
2018-11-03T07:33:04.975Z,1028.42
2018-11-03T07:34:04.862Z,1028.42
2018-11-03T07:35:05.224Z,1028.46
2018-11-03T07:36:06.052Z,1028.44
2018-11-03T07:37:05.346Z,1028.52
2018-11-03T07:38:04.654Z,1028.46
2018-11-03T07:39:04.735Z,1028.46
2018-11-03T07:40:04.744Z,1028.39
2018-11-03T07:41:05.314Z,1028.43
2018-11-03T07:42:04.619Z,1028.4
2018-11-03T07:43:04.760Z,1028.4
2018-11-03T07:44:04.823Z,1028.41
2018-11-03T07:45:05.298Z,1028.38
2018-11-03T07:46:04.718Z,1028.4
2018-11-03T07:47:04.865Z,1028.37
2018-11-03T07:48:05.214Z,1028.4
2018-11-03T07:49:05.812Z,1028.41
2018-11-03T07:50:04.763Z,1028.42
2018-11-03T07:51:04.870Z,1028.45
2018-11-03T07:52:04.732Z,1028.4
2018-11-03T07:53:04.968Z,1028.45
2018-11-03T07:54:04.952Z,1028.47
2018-11-03T07:55:05.471Z,1028.43
2018-11-03T07:56:04.689Z,1028.45
2018-11-03T07:57:04.694Z,1028.47
2018-11-03T07:58:04.742Z,1028.42
2018-11-03T07:59:04.819Z,1028.44
2018-11-03T08:00:04.818Z,1028.43
2018-11-03T08:01:04.555Z,1028.42
2018-11-03T08:02:04.814Z,1028.44
2018-11-03T08:03:04.732Z,1028.44
2018-11-03T08:04:05.541Z,1028.43
2018-11-03T08:05:05.182Z,1028.44
2018-11-03T08:06:04.703Z,1028.42
2018-11-03T08:07:04.813Z,1028.4
2018-11-03T08:08:04.626Z,1028.42
2018-11-03T08:09:05.662Z,1028.45
2018-11-03T08:10:04.869Z,1028.44
2018-11-03T08:11:05.353Z,1028.41
2018-11-03T08:12:04.627Z,1028.44
2018-11-03T08:13:04.878Z,1028.4
2018-11-03T08:14:05.407Z,1028.37
2018-11-03T08:15:04.808Z,1028.39
2018-11-03T08:16:05.165Z,1028.33
2018-11-03T08:17:05.307Z,1028.32
2018-11-03T08:18:05.132Z,1028.26
2018-11-03T08:19:04.836Z,1028.33
2018-11-03T08:20:04.813Z,1028.34
2018-11-03T08:21:05.103Z,1028.31
2018-11-03T08:22:04.789Z,1028.24
2018-11-03T08:23:04.702Z,1028.27
2018-11-03T08:24:06.151Z,1028.26
2018-11-03T08:25:04.971Z,1028.26
2018-11-03T08:26:04.901Z,1028.25
2018-11-03T08:27:04.929Z,1028.23
2018-11-03T08:28:04.823Z,1028.23
2018-11-03T08:29:05.179Z,1028.38
2018-11-03T08:30:05.159Z,1028.37
2018-11-03T08:31:04.970Z,1028.37
2018-11-03T08:32:04.548Z,1028.39
2018-11-03T08:33:05.213Z,1028.43
2018-11-03T08:34:04.830Z,1028.44
2018-11-03T08:35:04.729Z,1028.45
2018-11-03T08:36:04.656Z,1028.4
2018-11-03T08:37:04.611Z,1028.45
2018-11-03T08:38:05.062Z,1028.44
2018-11-03T08:39:04.691Z,1028.43
2018-11-03T08:40:05.143Z,1028.46
2018-11-03T08:41:04.757Z,1028.47
2018-11-03T08:42:04.568Z,1028.44
2018-11-03T08:43:04.735Z,1028.46
2018-11-03T08:44:04.826Z,1028.45
2018-11-03T08:45:05.421Z,1028.41
2018-11-03T08:46:04.539Z,1028.49
2018-11-03T08:47:04.709Z,1028.47
2018-11-03T08:48:05.349Z,1028.44
2018-11-03T08:49:05.021Z,1028.42
2018-11-03T08:50:04.828Z,1028.44
2018-11-03T08:51:04.783Z,1028.39
2018-11-03T08:52:04.795Z,1028.38
2018-11-03T08:53:04.940Z,1028.37
2018-11-03T08:54:04.618Z,1028.31
2018-11-03T08:55:05.903Z,1028.34
2018-11-03T08:56:04.549Z,1028.3
2018-11-03T08:57:04.822Z,1028.34
2018-11-03T08:58:04.599Z,1028.34
2018-11-03T08:59:05.387Z,1028.37
2018-11-03T09:00:05.658Z,1028.39
2018-11-03T09:01:04.809Z,1028.32
2018-11-03T09:02:04.714Z,1028.28
2018-11-03T09:03:04.801Z,1028.29
2018-11-03T09:04:04.784Z,1028.32
2018-11-03T09:05:05.258Z,1028.18
2018-11-03T09:06:05.370Z,1028.23
2018-11-03T09:07:06.000Z,1028.18
2018-11-03T09:08:05.209Z,1028.15
2018-11-03T09:09:05.219Z,1028.12
2018-11-03T09:10:04.866Z,1028.12
2018-11-03T09:11:04.702Z,1028.14
2018-11-03T09:12:04.701Z,1028.11
2018-11-03T09:13:04.725Z,1028.11
2018-11-03T09:14:04.698Z,1028.09
2018-11-03T09:15:05.200Z,1028.14
2018-11-03T09:16:04.739Z,1028.11
2018-11-03T09:17:04.795Z,1028.15
2018-11-03T09:18:04.839Z,1028.17
2018-11-03T09:19:04.679Z,1028.15
2018-11-03T09:20:04.650Z,1028.13
2018-11-03T09:21:04.717Z,1028.11
2018-11-03T09:22:04.764Z,1028.12
2018-11-03T09:23:04.734Z,1028.07
2018-11-03T09:24:04.809Z,1028.07
2018-11-03T09:25:04.750Z,1028.07
2018-11-03T09:26:05.410Z,1028.01
2018-11-03T09:27:05.145Z,1027.99
2018-11-03T09:28:04.708Z,1028.02
2018-11-03T09:29:04.701Z,1028.03
2018-11-03T09:30:04.672Z,1028
2018-11-03T09:31:04.746Z,1027.97
2018-11-03T09:32:05.312Z,1027.97
2018-11-03T09:33:04.548Z,1027.94
2018-11-03T09:34:04.809Z,1027.93
2018-11-03T09:35:04.629Z,1027.91
2018-11-03T09:36:05.995Z,1027.93
2018-11-03T09:37:04.642Z,1027.93
2018-11-03T09:38:04.615Z,1027.96
2018-11-03T09:39:05.043Z,1027.94
2018-11-03T09:40:04.949Z,1027.98
2018-11-03T09:41:04.758Z,1027.98
2018-11-03T09:42:04.793Z,1027.97
2018-11-03T09:43:05.671Z,1027.96
2018-11-03T09:44:04.446Z,1027.94
2018-11-03T09:45:05.398Z,1027.89
2018-11-03T09:46:05.758Z,1027.9
2018-11-03T09:47:04.574Z,1027.88
2018-11-03T09:48:04.894Z,1027.94
2018-11-03T09:49:05.416Z,1027.9
2018-11-03T09:50:04.732Z,1027.86
2018-11-03T09:51:05.145Z,1027.92
2018-11-03T09:52:04.830Z,1027.92
2018-11-03T09:53:04.708Z,1027.93
2018-11-03T09:54:04.479Z,1027.94
2018-11-03T09:55:04.909Z,1027.93
2018-11-03T09:56:05.420Z,1027.88
2018-11-03T09:57:04.684Z,1027.89
2018-11-03T09:58:04.669Z,1027.93
2018-11-03T09:59:04.704Z,1027.87
2018-11-03T10:00:05.572Z,1027.82
2018-11-03T10:01:04.791Z,1027.84
2018-11-03T10:02:04.978Z,1027.86
2018-11-03T10:03:05.368Z,1027.91
2018-11-03T10:04:05.005Z,1027.85
2018-11-03T10:05:05.114Z,1027.83
2018-11-03T10:06:05.188Z,1027.87
2018-11-03T10:07:04.756Z,1027.87
2018-11-03T10:08:04.396Z,1027.82
2018-11-03T10:09:04.681Z,1027.81
2018-11-03T10:10:04.675Z,1027.8
2018-11-03T10:11:04.719Z,1027.79
2018-11-03T10:12:04.664Z,1027.76
2018-11-03T10:13:04.765Z,1027.75
2018-11-03T10:14:05.409Z,1027.66
2018-11-03T10:15:04.708Z,1027.68
2018-11-03T10:16:05.623Z,1027.64
2018-11-03T10:17:05.592Z,1027.69
2018-11-03T10:18:04.623Z,1027.71
2018-11-03T10:19:04.923Z,1027.7
2018-11-03T10:20:04.485Z,1027.68
2018-11-03T10:21:04.785Z,1027.68
2018-11-03T10:22:04.965Z,1027.65
2018-11-03T10:23:05.469Z,1027.65
2018-11-03T10:24:04.863Z,1027.69
2018-11-03T10:25:04.815Z,1027.67
2018-11-03T10:26:05.029Z,1027.68
2018-11-03T10:27:04.815Z,1027.63
2018-11-03T10:28:04.556Z,1027.6
2018-11-03T10:29:04.903Z,1027.65
2018-11-03T10:30:04.637Z,1027.65
2018-11-03T10:31:05.026Z,1027.6
2018-11-03T10:32:04.910Z,1027.61
2018-11-03T10:33:05.327Z,1027.62
2018-11-03T10:34:05.130Z,1027.63
2018-11-03T10:35:04.570Z,1027.64
2018-11-03T10:36:05.012Z,1027.63
2018-11-03T10:37:04.592Z,1027.62
2018-11-03T10:38:04.816Z,1027.56
2018-11-03T10:39:04.914Z,1027.58
2018-11-03T10:40:04.954Z,1027.61
2018-11-03T10:41:04.494Z,1027.61
2018-11-03T10:42:04.539Z,1027.56
2018-11-03T10:43:04.699Z,1027.57
2018-11-03T10:44:04.516Z,1027.52
2018-11-03T10:45:04.625Z,1027.52
2018-11-03T10:46:05.002Z,1027.51
2018-11-03T10:47:05.585Z,1027.47
2018-11-03T10:48:04.681Z,1027.51
2018-11-03T10:49:04.509Z,1027.5
2018-11-03T10:50:04.551Z,1027.48
2018-11-03T10:51:04.771Z,1027.53
2018-11-03T10:52:04.696Z,1027.52
2018-11-03T10:53:04.721Z,1027.55
2018-11-03T10:54:04.787Z,1027.49
2018-11-03T10:55:04.664Z,1027.42
2018-11-03T10:56:04.498Z,1027.46
2018-11-03T10:57:05.554Z,1027.45
2018-11-03T10:58:04.679Z,1027.39
2018-11-03T10:59:04.623Z,1027.4
2018-11-03T11:00:04.705Z,1027.43
2018-11-03T11:01:04.558Z,1027.34
2018-11-03T11:02:04.607Z,1027.36
2018-11-03T11:03:04.861Z,1027.36
2018-11-03T11:04:04.735Z,1027.33
2018-11-03T11:05:04.693Z,1027.37
2018-11-03T11:06:04.527Z,1027.35
2018-11-03T11:07:05.830Z,1027.37
2018-11-03T11:08:04.520Z,1027.36
2018-11-03T11:09:05.095Z,1027.35
2018-11-03T11:10:04.592Z,1027.37
2018-11-03T11:11:05.165Z,1027.3
2018-11-03T11:12:05.298Z,1027.28
2018-11-03T11:13:04.890Z,1027.28
2018-11-03T11:14:05.009Z,1027.25
2018-11-03T11:15:04.580Z,1027.25
2018-11-03T11:16:04.795Z,1027.24
2018-11-03T11:17:05.666Z,1027.23
2018-11-03T11:18:04.552Z,1027.25
2018-11-03T11:19:04.729Z,1027.19
2018-11-03T11:20:05.189Z,1027.23
2018-11-03T11:21:04.777Z,1027.19
2018-11-03T11:22:05.115Z,1027.18
2018-11-03T11:23:04.616Z,1027.2
2018-11-03T11:24:05.229Z,1027.15
2018-11-03T11:25:05.617Z,1027.15
2018-11-03T11:26:04.806Z,1027.13
2018-11-03T11:27:05.362Z,1027.13
2018-11-03T11:28:04.855Z,1027.14
2018-11-03T11:29:04.722Z,1027.1
2018-11-03T11:30:04.944Z,1027.11
2018-11-03T11:31:05.038Z,1027.07
2018-11-03T11:32:05.857Z,1027
2018-11-03T11:33:05.463Z,1027.02
2018-11-03T11:34:05.155Z,1026.98
2018-11-03T11:35:04.678Z,1026.98
2018-11-03T11:36:04.788Z,1026.96
2018-11-03T11:37:04.923Z,1026.92
2018-11-03T11:38:04.633Z,1026.91
2018-11-03T11:39:04.989Z,1026.86
2018-11-03T11:40:04.690Z,1026.93
2018-11-03T11:41:04.935Z,1026.87
2018-11-03T11:42:04.851Z,1026.84
2018-11-03T11:43:05.393Z,1026.84
2018-11-03T11:44:04.720Z,1026.82
2018-11-03T11:45:04.628Z,1026.8
2018-11-03T11:46:04.706Z,1026.86
2018-11-03T11:47:04.724Z,1026.79
2018-11-03T11:48:04.830Z,1026.8
2018-11-03T11:49:04.622Z,1026.83
2018-11-03T11:50:04.979Z,1026.82
2018-11-03T11:51:04.463Z,1026.81
2018-11-03T11:52:04.526Z,1026.8
2018-11-03T11:53:04.511Z,1026.76
2018-11-03T11:54:04.484Z,1026.75
2018-11-03T11:55:05.781Z,1026.79
2018-11-03T11:56:04.967Z,1026.78
2018-11-03T11:57:05.184Z,1026.76
2018-11-03T11:58:04.903Z,1026.77
2018-11-03T11:59:04.975Z,1026.76
2018-11-03T12:00:04.610Z,1026.7
2018-11-03T12:01:04.971Z,1026.63
2018-11-03T12:02:05.001Z,1026.62
2018-11-03T12:03:04.776Z,1026.55
2018-11-03T12:04:04.779Z,1026.58
2018-11-03T12:05:05.381Z,1026.56
2018-11-03T12:06:04.876Z,1026.52
2018-11-03T12:07:05.969Z,1026.57
2018-11-03T12:08:04.421Z,1026.5